This is the latest recevied weather packets stored in our database for station/object KB0OLA. If no packets are shown the sender has not sent any weather packets the latest 10 day(s).
| Time | Temp. | Humidity | Pressure | Rain* | Wind** | Luminosity | Snow |
|---|---|---|---|---|---|---|---|
| 1777227317 | 7.22° C | 87% | 1002.5 hPa | 2.29 mm | - | - | - |
| 1777226717 | 7.22° C | 87% | 1002.5 hPa | 2.29 mm | - | - | - |
| 1777221917 | 7.22° C | 87% | 1002.1 hPa | 1.02 mm | - | - | - |
| 1777221317 | 7.22° C | 87% | 1002 hPa | 1.27 mm | - | - | - |
| 1777220139 | 7.22° C | 88% | 1001.9 hPa | 1.27 mm | - | - | - |
| 1777219518 | 7.22° C | 87% | 1001.9 hPa | 1.02 mm | - | - | - |
| 1777211138 | 6.11° C | 85% | 1002.6 hPa | 1.27 mm | - | - | - |
| 1777209918 | 6.67° C | 85% | 1002.5 hPa | 1.02 mm | - | - | - |
| 1777205118 | 6.67° C | 84% | 1002.4 hPa | 0.51 mm | - | - | - |
| 1777201518 | 6.67° C | 81% | 1003 hPa | 1.02 mm | - | - | - |
| 1777200917 | 6.67° C | 80% | 1003.2 hPa | 1.27 mm | - | - | - |
| 1777192517 | 10° C | 49% | 1003.5 hPa | 0 mm | - | - | - |
| 1777191317 | 10.56° C | 48% | 1003.3 hPa | 0 mm | - | - | - |
| 1777181717 | 10° C | 39% | 1003.4 hPa | 0 mm | - | - | - |
| 1777180517 | 10.56° C | 39% | 1003.8 hPa | 0 mm | - | - | - |
| 1777179916 | 10.56° C | 38% | 1003.7 hPa | 0 mm | - | - | - |
| 1777178117 | 11.11° C | 34% | 1004 hPa | 0 mm | - | - | - |
| 1777177517 | 11.11° C | 33% | 1004 hPa | 0 mm | - | - | - |
| 1777176917 | 11.11° C | 34% | 1004 hPa | 0 mm | - | - | - |
| 1777170318 | 12.78° C | 32% | 1004.3 hPa | 0 mm | - | - | - |
| 1777164918 | 14.44° C | 29% | 1005.3 hPa | 0 mm | - | - | - |
| 1777163118 | 15° C | 26% | 1005.6 hPa | 0 mm | - | - | - |
| 1777162518 | 15.56° C | 28% | 1005.8 hPa | 0 mm | - | - | - |
| 1777161318 | 16.11° C | 26% | 1005.9 hPa | 0 mm | - | - | - |
| 1777151738 | 15° C | 28% | 1008.3 hPa | 0 mm | - | - | - |
* Rain latest hour (hover to see other rain measurements)
** Current wind speed in m/s (hover to see current wind gust speed)